Time;durP1;ratioP1;P1;durP2;ratioP2;P2;SDS_P1;SDS_P2;PMS_P1;PMS_P2;Temp;Humidity;BMP_temperature;BMP_pressure;BME280_temperature;BME280_humidity;BME280_pressure;Samples;Min_cycle;Max_cycle;Signal;HPM_P1;HPM_P2
2022/01/31 00:00:14;;;;;;;9.60;3.97;;;5.70;69.40;;;;;;953273;146;27306;-79
2022/01/31 00:02:40;;;;;;;9.90;4.30;;;5.70;69.40;;;;;;953224;145;27441;-79
2022/01/31 00:05:07;;;;;;;10.20;3.43;;;5.80;69.60;;;;;;953631;147;27315;-79
2022/01/31 00:07:33;;;;;;;10.10;3.93;;;5.80;69.50;;;;;;952570;147;27366;-79
2022/01/31 00:10:05;;;;;;;5.20;3.40;;;5.90;69.60;;;;;;953301;146;27467;-79
2022/01/31 00:12:32;;;;;;;5.90;2.87;;;5.90;69.60;;;;;;953078;146;27330;-79
2022/01/31 00:15:00;;;;;;;4.70;2.67;;;5.90;69.60;;;;;;956907;146;27400;-79
2022/01/31 00:17:20;;;;;;;9.53;3.70;;;5.90;69.60;;;;;;959188;146;27225;-79
2022/01/31 00:19:46;;;;;;;8.53;3.63;;;6.00;69.60;;;;;;959893;146;27318;-79
2022/01/31 00:22:13;;;;;;;8.27;3.43;;;6.00;69.60;;;;;;959099;146;27315;-79
2022/01/31 00:24:40;;;;;;;10.30;4.17;;;6.00;69.60;;;;;;959663;146;27321;-79
2022/01/31 00:27:06;;;;;;;10.87;3.53;;;6.10;69.60;;;;;;961434;146;27352;-79
2022/01/31 00:29:33;;;;;;;5.80;2.90;;;6.10;69.50;;;;;;959819;146;27301;-79
2022/01/31 00:31:59;;;;;;;5.23;3.10;;;6.10;69.50;;;;;;961164;146;27299;-79
2022/01/31 00:34:26;;;;;;;7.07;3.40;;;6.10;69.40;;;;;;961178;146;27315;-79
2022/01/31 00:36:54;;;;;;;6.03;3.23;;;6.10;69.40;;;;;;958376;146;29001;-79
2022/01/31 00:39:19;;;;;;;5.33;2.93;;;6.10;69.40;;;;;;960068;146;27405;-79
2022/01/31 00:41:46;;;;;;;7.87;3.57;;;6.10;69.40;;;;;;959286;146;27272;-79
2022/01/31 00:44:27;;;;;;;8.53;3.27;;;6.10;69.40;;;;;;957556;146;27426;-79
2022/01/31 00:46:56;;;;;;;7.13;3.43;;;6.20;69.50;;;;;;958183;146;27438;-79
2022/01/31 00:49:35;;;;;;;7.30;2.87;;;6.10;69.40;;;;;;958446;146;27337;-79
2022/01/31 00:51:50;;;;;;;6.23;3.07;;;6.10;69.50;;;;;;957531;146;27311;-79
2022/01/31 00:54:16;;;;;;;6.73;3.33;;;6.10;69.40;;;;;;961024;146;27286;-79
2022/01/31 00:56:43;;;;;;;9.00;3.03;;;6.10;69.40;;;;;;957984;146;27251;-79
2022/01/31 00:59:10;;;;;;;8.93;3.47;;;6.10;69.60;;;;;;959873;146;27324;-79
2022/01/31 01:01:36;;;;;;;7.30;3.43;;;6.20;69.60;;;;;;958871;146;27835;-79
2022/01/31 01:04:03;;;;;;;6.43;3.00;;;6.20;69.70;;;;;;958665;145;27312;-79
2022/01/31 01:06:29;;;;;;;3.90;2.97;;;6.10;69.60;;;;;;960394;146;27362;-79
2022/01/31 01:08:56;;;;;;;6.90;3.27;;;6.20;69.70;;;;;;959059;146;27401;-79
2022/01/31 01:11:22;;;;;;;7.87;3.93;;;6.20;69.80;;;;;;961832;146;27415;-79
2022/01/31 01:13:49;;;;;;;5.53;2.83;;;6.20;69.80;;;;;;958612;143;27923;-79
2022/01/31 01:16:16;;;;;;;7.67;3.03;;;6.20;69.80;;;;;;957490;145;27442;-79
2022/01/31 01:18:42;;;;;;;8.97;4.00;;;6.20;69.80;;;;;;959235;146;27344;-79
2022/01/31 01:21:09;;;;;;;5.80;2.80;;;6.20;69.80;;;;;;959218;146;27300;-79
2022/01/31 01:23:35;;;;;;;8.40;3.20;;;6.20;69.80;;;;;;960014;146;27353;-79
2022/01/31 01:26:02;;;;;;;7.20;3.93;;;6.20;69.80;;;;;;958430;145;27442;-79
2022/01/31 01:28:29;;;;;;;5.40;3.43;;;6.20;69.90;;;;;;959248;146;27457;-79
2022/01/31 01:30:56;;;;;;;8.27;3.13;;;6.20;69.90;;;;;;956771;146;27780;-79
2022/01/31 01:33:23;;;;;;;6.37;2.77;;;6.30;69.90;;;;;;957759;146;27363;-79
2022/01/31 01:35:50;;;;;;;10.03;3.93;;;6.30;69.90;;;;;;961326;145;27343;-79
2022/01/31 01:38:17;;;;;;;10.83;3.07;;;6.30;69.90;;;;;;958319;145;27348;-79
2022/01/31 01:40:41;;;;;;;8.13;3.57;;;6.30;70.00;;;;;;957756;146;27452;-79
2022/01/31 01:43:08;;;;;;;3.43;2.70;;;6.30;69.90;;;;;;958459;146;27428;-79
2022/01/31 01:45:35;;;;;;;7.57;3.77;;;6.30;70.00;;;;;;959856;146;27428;-79
2022/01/31 01:48:01;;;;;;;8.20;3.37;;;6.30;69.80;;;;;;960885;146;27335;-79
2022/01/31 01:50:28;;;;;;;6.87;3.50;;;6.30;69.90;;;;;;958950;146;27337;-78
2022/01/31 01:52:54;;;;;;;8.87;3.23;;;6.30;69.90;;;;;;957945;145;27347;-79
2022/01/31 01:55:21;;;;;;;10.10;3.20;;;6.30;69.90;;;;;;960291;145;28344;-79
2022/01/31 01:57:48;;;;;;;7.93;4.00;;;6.20;69.90;;;;;;959490;145;27340;-79
2022/01/31 02:00:24;;;;;;;4.93;2.83;;;6.20;69.90;;;;;;958795;145;27287;-79
2022/01/31 02:02:44;;;;;;;5.40;3.00;;;6.20;70.10;;;;;;958119;146;27333;-79
2022/01/31 02:05:10;;;;;;;7.53;3.20;;;6.10;70.00;;;;;;958962;146;27352;-79
2022/01/31 02:07:37;;;;;;;4.93;2.83;;;6.20;70.20;;;;;;955647;145;27713;-79
2022/01/31 02:10:04;;;;;;;7.13;2.97;;;6.20;70.30;;;;;;958960;145;28046;-79
2022/01/31 02:12:39;;;;;;;6.60;2.70;;;6.20;70.40;;;;;;958436;145;27314;-79
2022/01/31 02:15:05;;;;;;;7.57;2.80;;;6.10;70.40;;;;;;954187;145;27486;-79
2022/01/31 02:17:32;;;;;;;4.53;2.87;;;6.10;70.50;;;;;;955220;146;27344;-79
2022/01/31 02:19:58;;;;;;;6.60;3.07;;;6.10;70.60;;;;;;953439;147;27319;-79
2022/01/31 02:22:25;;;;;;;7.33;3.23;;;6.20;70.70;;;;;;951921;147;27398;-79
2022/01/31 02:24:52;;;;;;;5.07;2.73;;;6.20;70.80;;;;;;953229;145;27333;-79
2022/01/31 02:27:27;;;;;;;8.97;3.37;;;6.20;70.90;;;;;;955080;146;27321;-79
2022/01/31 02:29:54;;;;;;;5.83;2.43;;;6.20;70.90;;;;;;953291;146;27361;-79
2022/01/31 02:32:22;;;;;;;5.63;2.40;;;6.30;71.00;;;;;;954699;146;27369;-79
2022/01/31 02:34:47;;;;;;;8.40;2.67;;;6.30;71.00;;;;;;952254;146;27820;-79
2022/01/31 02:37:13;;;;;;;9.37;3.03;;;6.30;71.00;;;;;;954193;146;27288;-79
2022/01/31 02:39:40;;;;;;;5.83;2.73;;;6.40;71.00;;;;;;951872;146;27317;-79
2022/01/31 02:42:07;;;;;;;13.20;3.43;;;6.50;71.80;;;;;;954788;146;27434;-79
2022/01/31 02:44:33;;;;;;;6.13;2.80;;;6.50;71.00;;;;;;954922;146;27346;-79
2022/01/31 02:47:00;;;;;;;10.30;3.07;;;6.50;70.90;;;;;;955077;145;27293;-79
2022/01/31 02:49:34;;;;;;;4.97;2.57;;;6.50;70.90;;;;;;954729;145;27316;-79
2022/01/31 02:51:55;;;;;;;6.90;2.67;;;6.60;70.90;;;;;;953294;145;27786;-79
2022/01/31 02:54:20;;;;;;;7.10;2.97;;;6.60;70.90;;;;;;952780;147;27395;-80
2022/01/31 02:56:46;;;;;;;4.60;2.77;;;6.60;70.90;;;;;;952517;146;27393;-80
2022/01/31 02:59:13;;;;;;;5.60;2.70;;;6.70;70.90;;;;;;952851;147;27360;-79
2022/01/31 03:01:39;;;;;;;3.73;2.60;;;6.70;70.90;;;;;;954646;146;27300;-79
2022/01/31 03:04:07;;;;;;;4.60;2.37;;;6.70;70.90;;;;;;954728;146;27312;-79
2022/01/31 03:06:32;;;;;;;4.73;2.10;;;6.70;71.00;;;;;;954350;145;27744;-79
2022/01/31 03:08:59;;;;;;;6.17;2.90;;;6.70;70.80;;;;;;955435;146;27855;-79
2022/01/31 03:11:26;;;;;;;4.27;2.60;;;6.80;70.90;;;;;;955817;146;27348;-79
2022/01/31 03:13:52;;;;;;;8.37;3.00;;;6.80;70.90;;;;;;953656;145;27404;-79
2022/01/31 03:16:19;;;;;;;3.10;1.90;;;6.80;70.90;;;;;;954552;146;27320;-79
2022/01/31 03:18:45;;;;;;;7.43;2.60;;;6.90;70.90;;;;;;953925;146;27313;-79
2022/01/31 03:21:12;;;;;;;5.07;2.30;;;6.90;70.80;;;;;;953709;146;27357;-79
2022/01/31 03:23:39;;;;;;;5.27;2.17;;;6.90;70.90;;;;;;951788;146;27345;-79
2022/01/31 03:26:05;;;;;;;7.83;2.60;;;7.00;70.80;;;;;;954592;146;27273;-79
2022/01/31 03:28:32;;;;;;;9.53;2.67;;;7.00;71.50;;;;;;954111;146;27433;-77
2022/01/31 03:30:58;;;;;;;6.10;2.67;;;7.00;70.70;;;;;;956633;145;27314;-77
2022/01/31 03:33:25;;;;;;;3.37;2.10;;;7.10;70.70;;;;;;954007;146;27395;-78
2022/01/31 03:35:51;;;;;;;8.27;2.13;;;7.10;70.60;;;;;;954154;147;27409;-81
2022/01/31 03:38:18;;;;;;;8.17;2.67;;;7.20;70.60;;;;;;956482;146;27360;-81
2022/01/31 03:40:45;;;;;;;4.37;2.30;;;7.30;70.60;;;;;;954189;146;27401;-81
2022/01/31 03:43:11;;;;;;;6.10;2.37;;;7.30;70.50;;;;;;953467;146;27316;-81
2022/01/31 03:45:38;;;;;;;5.80;2.23;;;7.30;70.40;;;;;;954272;147;27838;-80
2022/01/31 03:48:06;;;;;;;6.30;2.50;;;7.30;69.80;;;;;;955830;147;27429;-79
2022/01/31 03:50:31;;;;;;;5.13;2.33;;;7.40;70.40;;;;;;955452;146;27344;-81
2022/01/31 03:52:58;;;;;;;4.83;2.43;;;7.40;70.30;;;;;;954307;146;27351;-82
2022/01/31 03:55:24;;;;;;;5.10;2.50;;;7.40;70.30;;;;;;952342;147;27402;-82
2022/01/31 03:57:51;;;;;;;5.07;2.63;;;7.40;70.30;;;;;;954265;146;27331;-81
2022/01/31 04:00:18;;;;;;;5.60;2.50;;;7.40;70.20;;;;;;951254;146;27316;-80
2022/01/31 04:02:44;;;;;;;8.00;2.60;;;7.50;70.20;;;;;;953637;146;27450;-82
2022/01/31 04:05:11;;;;;;;4.63;2.40;;;7.50;70.20;;;;;;953103;147;28443;-81
2022/01/31 04:07:37;;;;;;;5.97;2.50;;;7.50;70.10;;;;;;952015;147;27350;-81
2022/01/31 04:10:04;;;;;;;5.03;2.30;;;7.50;70.10;;;;;;952824;146;27803;-81
2022/01/31 04:12:30;;;;;;;6.53;2.73;;;7.50;70.10;;;;;;952004;145;27390;-81
2022/01/31 04:14:57;;;;;;;6.77;2.43;;;7.50;70.10;;;;;;954416;146;27404;-82
2022/01/31 04:17:25;;;;;;;4.53;2.43;;;7.60;70.10;;;;;;956490;146;27360;-82
2022/01/31 04:19:51;;;;;;;4.50;2.53;;;7.60;70.10;;;;;;959313;145;27353;-82
2022/01/31 04:22:19;;;;;;;5.73;2.80;;;7.60;69.30;;;;;;960915;146;27433;-80
2022/01/31 04:24:46;;;;;;;7.37;2.77;;;7.60;70.00;;;;;;962971;145;27354;-79
2022/01/31 04:27:16;;;;;;;5.30;2.40;;;7.60;70.00;;;;;;962318;146;27384;-79
2022/01/31 04:29:40;;;;;;;3.63;2.30;;;7.70;70.10;;;;;;962162;146;27336;-79
2022/01/31 04:32:03;;;;;;;4.07;2.50;;;7.70;70.10;;;;;;959509;145;27256;-81
2022/01/31 04:34:31;;;;;;;6.47;2.57;;;7.70;70.00;;;;;;958655;146;27361;-81
2022/01/31 04:36:56;;;;;;;4.97;2.27;;;7.70;70.80;;;;;;959874;146;27829;-81
2022/01/31 04:39:23;;;;;;;7.77;2.93;;;7.70;70.00;;;;;;958282;146;27276;-79
2022/01/31 04:41:49;;;;;;;7.80;2.67;;;7.80;70.10;;;;;;959003;145;27361;-81
2022/01/31 04:44:16;;;;;;;4.57;2.60;;;7.80;70.00;;;;;;957374;146;27339;-81
2022/01/31 04:46:45;;;;;;;7.73;3.43;;;7.80;70.00;;;;;;958330;145;27279;-81
2022/01/31 04:49:09;;;;;;;6.63;2.47;;;7.80;70.00;;;;;;959815;146;27261;-79
2022/01/31 04:51:36;;;;;;;6.43;2.90;;;7.80;70.10;;;;;;957771;145;27310;-81
2022/01/31 04:54:02;;;;;;;5.13;2.30;;;7.80;70.00;;;;;;959720;145;27478;-83
2022/01/31 04:56:29;;;;;;;8.90;2.90;;;7.80;70.00;;;;;;958459;146;27462;-81
2022/01/31 04:58:55;;;;;;;9.07;3.50;;;7.80;70.00;;;;;;959168;145;27241;-81
2022/01/31 05:01:23;;;;;;;6.83;2.40;;;7.80;70.00;;;;;;958655;145;27407;-82
2022/01/31 05:03:49;;;;;;;5.67;3.27;;;7.90;70.20;;;;;;960673;145;27796;-81
2022/01/31 05:06:18;;;;;;;8.70;3.13;;;7.80;70.20;;;;;;958587;146;27864;-82
2022/01/31 05:08:42;;;;;;;7.27;3.20;;;7.90;70.30;;;;;;957991;145;27343;-82
2022/01/31 05:11:10;;;;;;;4.23;3.13;;;7.90;70.50;;;;;;959478;145;28314;-82
2022/01/31 05:13:37;;;;;;;5.00;2.70;;;7.90;70.70;;;;;;957218;146;27356;-81
2022/01/31 05:16:01;;;;;;;7.97;2.67;;;7.90;71.00;;;;;;959172;143;27461;-81
2022/01/31 05:18:28;;;;;;;9.37;3.33;;;7.80;71.00;;;;;;959981;146;27319;-79
2022/01/31 05:20:55;;;;;;;5.97;2.70;;;7.80;71.30;;;;;;960374;146;27319;-80
2022/01/31 05:23:21;;;;;;;4.53;2.87;;;7.70;71.40;;;;;;961109;146;27873;-82
2022/01/31 05:25:48;;;;;;;9.37;3.33;;;7.60;71.70;;;;;;959343;146;27276;-81
2022/01/31 05:28:14;;;;;;;6.03;2.83;;;7.50;71.80;;;;;;960425;146;27213;-81
2022/01/31 05:30:41;;;;;;;7.17;2.80;;;7.40;72.00;;;;;;958801;146;27410;-80
2022/01/31 05:33:08;;;;;;;5.80;2.80;;;7.30;72.30;;;;;;958147;146;27312;-82
2022/01/31 05:35:34;;;;;;;4.13;2.70;;;7.20;72.50;;;;;;961236;145;27318;-81
2022/01/31 05:38:01;;;;;;;5.93;2.77;;;7.10;72.70;;;;;;958627;146;27299;-82
2022/01/31 05:40:28;;;;;;;6.80;3.03;;;7.10;72.70;;;;;;957778;146;27293;-82
2022/01/31 05:42:54;;;;;;;6.07;2.90;;;7.00;73.70;;;;;;959895;146;27351;-81
2022/01/31 05:45:20;;;;;;;7.77;3.30;;;6.90;73.50;;;;;;957975;146;27418;-81
2022/01/31 05:47:47;;;;;;;6.27;2.97;;;6.90;73.70;;;;;;959373;146;27347;-82
2022/01/31 05:50:14;;;;;;;11.17;2.90;;;6.80;73.70;;;;;;958185;146;27357;-82
2022/01/31 05:52:40;;;;;;;7.07;3.23;;;6.70;74.00;;;;;;959851;146;29143;-81
2022/01/31 05:55:07;;;;;;;5.50;3.13;;;6.60;74.10;;;;;;959214;146;27237;-80
2022/01/31 05:57:33;;;;;;;6.73;3.17;;;6.60;74.30;;;;;;957792;146;27295;-79
2022/01/31 06:00:00;;;;;;;10.37;3.20;;;6.60;74.60;;;;;;958623;146;27340;-83
2022/01/31 06:02:27;;;;;;;9.13;3.67;;;6.50;74.60;;;;;;959691;146;27309;-82
2022/01/31 06:04:53;;;;;;;6.70;3.40;;;6.50;75.00;;;;;;960714;146;27680;-82
2022/01/31 06:07:20;;;;;;;4.80;2.77;;;6.50;75.10;;;;;;958202;146;27247;-81
2022/01/31 06:09:46;;;;;;;4.17;2.90;;;6.40;75.00;;;;;;960029;146;27422;-80
2022/01/31 06:12:15;;;;;;;6.20;2.93;;;6.40;75.70;;;;;;960346;146;27307;-81
2022/01/31 06:14:40;;;;;;;8.50;2.67;;;6.30;75.40;;;;;;957323;146;27477;-81
2022/01/31 06:17:06;;;;;;;5.30;2.90;;;6.30;75.60;;;;;;957318;146;27974;-82
2022/01/31 06:19:33;;;;;;;6.53;2.93;;;6.30;75.70;;;;;;954202;146;27305;-81
2022/01/31 06:21:59;;;;;;;6.30;2.70;;;6.30;75.90;;;;;;951975;146;27302;-81
2022/01/31 06:24:26;;;;;;;4.07;2.50;;;6.30;76.50;;;;;;953950;145;27366;-79
2022/01/31 06:26:53;;;;;;;5.20;2.77;;;6.30;76.80;;;;;;954649;145;27336;-80
2022/01/31 06:29:19;;;;;;;5.17;2.97;;;6.30;77.10;;;;;;954947;146;27332;-80
2022/01/31 06:31:46;;;;;;;5.80;3.30;;;6.20;76.90;;;;;;955252;145;27281;-80
2022/01/31 06:34:12;;;;;;;8.70;3.13;;;6.20;77.30;;;;;;953100;146;27809;-81
2022/01/31 06:36:39;;;;;;;4.47;2.70;;;6.30;77.40;;;;;;952273;146;27418;-79
2022/01/31 06:39:05;;;;;;;4.20;2.33;;;6.30;77.30;;;;;;955567;146;27434;-81
2022/01/31 06:41:32;;;;;;;5.10;3.07;;;6.30;77.40;;;;;;953903;147;28109;-82
2022/01/31 06:43:58;;;;;;;4.37;2.50;;;6.30;77.40;;;;;;953020;145;27292;-81
2022/01/31 06:46:25;;;;;;;5.07;2.57;;;6.30;77.50;;;;;;955343;146;27312;-80
2022/01/31 06:48:52;;;;;;;4.17;2.40;;;6.40;78.00;;;;;;954156;146;27409;-81
2022/01/31 06:51:18;;;;;;;4.10;2.17;;;6.40;78.10;;;;;;955200;145;27386;-81
2022/01/31 06:53:48;;;;;;;4.00;2.83;;;6.40;78.00;;;;;;953082;146;27354;-81
2022/01/31 06:56:11;;;;;;;6.50;3.00;;;6.50;77.90;;;;;;954057;146;27354;-80
2022/01/31 06:58:38;;;;;;;5.73;2.60;;;6.50;77.90;;;;;;952321;146;27403;-80
2022/01/31 07:01:05;;;;;;;6.43;2.70;;;6.50;78.20;;;;;;953297;146;27432;-81
2022/01/31 07:03:31;;;;;;;6.27;2.47;;;6.50;78.40;;;;;;955103;146;27358;-82
2022/01/31 07:05:58;;;;;;;4.33;2.27;;;6.60;78.70;;;;;;954856;146;27741;-80
2022/01/31 07:08:24;;;;;;;3.10;2.60;;;6.60;78.40;;;;;;952727;145;27835;-82
2022/01/31 07:10:52;;;;;;;2.83;1.93;;;6.60;78.70;;;;;;955997;146;27329;-79
2022/01/31 07:15:59;;;;;;;3.87;2.00;;;6.70;78.80;;;;;;954075;146;27488;-80
2022/01/31 07:18:25;;;;;;;2.20;1.87;;;6.70;78.50;;;;;;947236;145;27377;-79
2022/01/31 07:20:53;;;;;;;2.60;1.70;;;6.70;78.90;;;;;;940530;148;27454;-78
2022/01/31 07:23:37;;;;;;;3.73;1.90;;;6.70;78.70;;;;;;938751;148;27461;-78
2022/01/31 07:25:45;;;;;;;3.13;2.20;;;6.70;78.70;;;;;;934511;148;27441;-79
2022/01/31 07:28:12;;;;;;;2.10;1.67;;;6.70;78.70;;;;;;938294;151;27465;-79
2022/01/31 07:30:38;;;;;;;3.13;2.00;;;6.70;79.00;;;;;;938134;151;27344;-79
2022/01/31 07:33:05;;;;;;;2.83;1.77;;;6.80;78.90;;;;;;938138;148;27348;-79
2022/01/31 07:35:31;;;;;;;3.07;1.53;;;6.80;78.90;;;;;;937985;148;27380;-79
2022/01/31 07:37:58;;;;;;;4.47;1.50;;;6.80;79.00;;;;;;939081;148;28024;-79
2022/01/31 07:40:25;;;;;;;2.73;1.73;;;6.80;79.00;;;;;;938465;148;27364;-78
2022/01/31 07:42:51;;;;;;;2.43;1.53;;;6.80;79.00;;;;;;938014;148;27459;-79
2022/01/31 07:45:18;;;;;;;3.90;1.87;;;6.80;79.20;;;;;;939495;148;27294;-78
2022/01/31 07:47:44;;;;;;;3.27;2.00;;;6.80;79.50;;;;;;939154;148;27428;-80
2022/01/31 07:50:12;;;;;;;2.43;1.80;;;6.90;79.80;;;;;;937930;148;27381;-78
2022/01/31 07:52:37;;;;;;;2.60;2.00;;;6.90;80.00;;;;;;938328;148;27353;-79
2022/01/31 07:55:04;;;;;;;1.37;1.27;;;7.00;80.30;;;;;;939408;148;27474;-79
2022/01/31 07:57:31;;;;;;;2.73;2.07;;;7.10;80.20;;;;;;938194;148;27699;-80
2022/01/31 07:59:57;;;;;;;2.27;1.60;;;7.10;80.30;;;;;;937914;148;27336;-78
2022/01/31 08:02:24;;;;;;;2.13;1.93;;;7.20;80.10;;;;;;938281;148;27352;-80
2022/01/31 08:04:54;;;;;;;2.33;1.87;;;7.30;80.10;;;;;;938738;148;27783;-79
2022/01/31 08:07:17;;;;;;;3.50;1.80;;;7.40;80.20;;;;;;919668;151;27433;-78
2022/01/31 08:09:44;;;;;;;1.73;1.40;;;7.50;80.60;;;;;;939306;148;27915;-79
2022/01/31 08:12:10;;;;;;;1.97;1.70;;;7.60;80.10;;;;;;938495;148;27361;-80
2022/01/31 08:14:37;;;;;;;1.40;1.30;;;7.60;80.00;;;;;;938479;148;27352;-79
2022/01/31 08:17:03;;;;;;;1.50;1.37;;;7.70;79.60;;;;;;938628;148;27348;-80
2022/01/31 08:19:30;;;;;;;1.80;1.43;;;7.80;79.40;;;;;;946236;147;27456;-79
2022/01/31 08:21:56;;;;;;;3.60;1.93;;;7.80;79.20;;;;;;950716;147;27426;-77
2022/01/31 08:24:23;;;;;;;2.97;1.37;;;7.80;79.20;;;;;;951000;147;27389;-79
2022/01/31 08:26:50;;;;;;;1.90;1.30;;;7.80;79.20;;;;;;932582;149;27262;-78
2022/01/31 08:29:23;;;;;;;2.60;1.43;;;7.90;79.20;;;;;;933030;149;27349;-78
2022/01/31 08:31:48;;;;;;;1.73;1.20;;;7.90;78.90;;;;;;932065;149;27461;-78
2022/01/31 08:36:42;;;;;;;2.77;1.33;;;7.90;79.00;;;;;;930688;149;27851;-78
2022/01/31 08:39:08;;;;;;;5.10;1.40;;;7.90;79.00;;;;;;924381;151;27450;-80
2022/01/31 08:41:36;;;;;;;2.70;1.20;;;7.90;79.10;;;;;;932438;149;27325;-78
2022/01/31 08:44:02;;;;;;;1.40;1.10;;;7.90;78.90;;;;;;917512;151;27447;-77
2022/01/31 08:46:28;;;;;;;2.27;1.20;;;7.90;79.10;;;;;;909740;153;27492;-80
2022/01/31 08:48:55;;;;;;;1.53;1.30;;;7.90;79.10;;;;;;932999;149;27939;-81
2022/01/31 08:51:21;;;;;;;1.17;0.97;;;8.00;79.10;;;;;;932640;149;27429;-79
2022/01/31 08:53:49;;;;;;;1.17;1.07;;;8.00;79.20;;;;;;931854;149;27325;-78
2022/01/31 08:56:15;;;;;;;2.10;1.20;;;8.00;79.10;;;;;;933673;149;27364;-79
2022/01/31 08:58:47;;;;;;;1.30;1.20;;;8.00;79.10;;;;;;933006;149;27364;-77
2022/01/31 09:01:12;;;;;;;1.50;1.17;;;8.00;79.10;;;;;;938366;149;27366;-80
2022/01/31 09:06:09;;;;;;;1.40;1.27;;;8.10;79.20;;;;;;949869;145;27427;-79
2022/01/31 09:08:36;;;;;;;1.83;1.03;;;8.10;79.00;;;;;;951432;146;27334;-80
2022/01/31 09:11:02;;;;;;;1.97;1.17;;;8.10;78.90;;;;;;952832;146;27364;-79
2022/01/31 09:13:29;;;;;;;1.10;1.10;;;8.10;78.90;;;;;;952646;146;27441;-79
2022/01/31 09:15:56;;;;;;;1.73;1.10;;;8.10;79.70;;;;;;953625;145;27885;-81
2022/01/31 09:18:22;;;;;;;1.40;1.00;;;8.10;79.70;;;;;;954698;146;27336;-81
2022/01/31 09:20:49;;;;;;;2.43;1.10;;;8.20;79.10;;;;;;950979;146;27302;-81
2022/01/31 09:23:15;;;;;;;1.10;1.07;;;8.20;79.20;;;;;;951697;146;28316;-79
2022/01/31 09:25:46;;;;;;;0.93;0.93;;;8.20;79.10;;;;;;952244;146;27345;-79
2022/01/31 09:28:11;;;;;;;1.13;0.90;;;8.20;79.20;;;;;;956883;146;27847;-79
2022/01/31 09:30:38;;;;;;;1.40;1.20;;;8.30;79.40;;;;;;950503;146;27345;-78
2022/01/31 09:33:04;;;;;;;2.00;1.20;;;8.30;79.50;;;;;;949106;146;27376;-78
2022/01/31 09:35:31;;;;;;;1.10;1.00;;;8.40;79.60;;;;;;949000;146;27328;-79
2022/01/31 09:37:58;;;;;;;2.07;1.30;;;8.40;79.60;;;;;;949709;145;27450;-78
2022/01/31 09:40:24;;;;;;;2.87;1.40;;;8.40;79.60;;;;;;948829;146;27456;-79
2022/01/31 09:45:59;;;;;;;1.33;1.23;;;8.50;79.60;;;;;;935625;146;27359;-80
2022/01/31 09:50:33;;;;;;;3.70;1.50;;;8.60;79.60;;;;;;951236;145;27304;-81
2022/01/31 09:52:58;;;;;;;2.57;1.33;;;8.70;79.70;;;;;;957022;145;27444;-79
2022/01/31 09:55:26;;;;;;;1.40;1.30;;;8.70;79.90;;;;;;949692;145;27401;-79
2022/01/31 09:57:51;;;;;;;1.40;1.30;;;8.80;80.20;;;;;;949554;146;27441;-80
2022/01/31 10:00:17;;;;;;;1.63;1.10;;;8.90;80.20;;;;;;931785;149;27505;-81
2022/01/31 10:03:08;;;;;;;1.77;1.27;;;8.90;80.20;;;;;;937620;148;27351;-79
2022/01/31 10:05:35;;;;;;;1.47;1.20;;;9.00;80.00;;;;;;952121;146;27306;-80
2022/01/31 10:08:10;;;;;;;3.93;1.70;;;9.10;79.90;;;;;;955375;146;27412;-79
2022/01/31 10:10:39;;;;;;;1.80;1.07;;;9.20;79.90;;;;;;957560;145;27332;-79
2022/01/31 10:18:15;;;;;;;2.07;1.10;;;9.30;79.50;;;;;;949878;146;27381;-80
2022/01/31 10:20:41;;;;;;;1.87;1.17;;;9.30;79.30;;;;;;953577;146;28531;-80
2022/01/31 10:23:11;;;;;;;3.23;1.40;;;9.30;79.20;;;;;;955320;146;27410;-78
2022/01/31 10:25:38;;;;;;;1.80;1.07;;;9.40;79.10;;;;;;956364;146;27331;-81
2022/01/31 10:28:10;;;;;;;1.73;1.30;;;9.40;79.00;;;;;;956150;146;27417;-80
2022/01/31 10:30:37;;;;;;;1.90;1.30;;;9.40;79.00;;;;;;956542;146;27438;-78
2022/01/31 10:33:03;;;;;;;1.70;1.20;;;9.40;79.10;;;;;;956205;146;28013;-80
2022/01/31 10:35:31;;;;;;;2.20;1.20;;;9.40;79.20;;;;;;956383;146;27317;-78
2022/01/31 10:37:57;;;;;;;2.87;1.27;;;9.50;79.30;;;;;;959982;146;27269;-78
2022/01/31 10:46:21;;;;;;;2.93;1.30;;;9.60;79.60;;;;;;958288;145;27337;-80
2022/01/31 10:53:49;;;;;;;2.77;1.00;;;9.90;80.10;;;;;;955665;146;27321;-78
2022/01/31 10:56:12;;;;;;;1.87;1.27;;;10.10;80.30;;;;;;956274;146;27380;-81
2022/01/31 10:58:56;;;;;;;2.80;1.30;;;10.20;80.40;;;;;;956970;146;27313;-79
2022/01/31 11:01:23;;;;;;;1.10;0.97;;;10.40;80.30;;;;;;957597;146;27318;-82
2022/01/31 11:03:49;;;;;;;0.83;0.83;;;10.50;79.80;;;;;;955819;146;27333;-80
2022/01/31 11:06:16;;;;;;;1.33;1.07;;;10.60;79.50;;;;;;955673;146;27333;-78
2022/01/31 11:08:43;;;;;;;2.50;1.20;;;10.70;78.60;;;;;;955134;146;27344;-80
2022/01/31 11:11:09;;;;;;;1.67;1.00;;;10.80;78.00;;;;;;956381;146;27389;-81
2022/01/31 11:13:36;;;;;;;1.07;0.73;;;10.80;77.50;;;;;;955199;146;27313;-78
2022/01/31 11:16:04;;;;;;;0.93;0.87;;;10.80;77.00;;;;;;956952;145;27371;-80
2022/01/31 11:18:29;;;;;;;1.23;0.90;;;10.70;76.60;;;;;;955607;146;28207;-79
2022/01/31 11:20:58;;;;;;;2.30;0.93;;;10.60;76.40;;;;;;956630;145;27440;-81
2022/01/31 11:23:25;;;;;;;1.30;1.10;;;10.50;76.30;;;;;;955753;146;27369;-80
2022/01/31 11:25:51;;;;;;;1.37;1.00;;;10.50;76.40;;;;;;955925;146;27405;-80
2022/01/31 11:28:18;;;;;;;1.23;1.10;;;10.40;76.40;;;;;;955642;146;27302;-80
2022/01/31 11:30:44;;;;;;;0.80;0.80;;;10.30;76.40;;;;;;955792;146;27423;-80
2022/01/31 11:33:11;;;;;;;1.13;1.00;;;10.20;76.50;;;;;;954977;146;27440;-80
2022/01/31 11:35:38;;;;;;;0.93;0.93;;;10.20;76.40;;;;;;956684;146;27311;-81
2022/01/31 11:38:04;;;;;;;1.30;1.10;;;10.20;76.40;;;;;;957870;146;28623;-81
2022/01/31 11:40:31;;;;;;;1.23;0.97;;;10.10;76.40;;;;;;956905;146;27417;-81
2022/01/31 11:42:57;;;;;;;0.60;0.60;;;10.10;76.40;;;;;;956304;146;27425;-80
2022/01/31 11:45:37;;;;;;;0.80;0.57;;;10.00;76.40;;;;;;956858;146;27345;-78
2022/01/31 11:48:11;;;;;;;0.80;0.60;;;10.00;76.50;;;;;;955552;146;27317;-81
2022/01/31 11:50:43;;;;;;;0.40;0.40;;;9.90;76.40;;;;;;954844;146;27307;-79
2022/01/31 11:53:10;;;;;;;2.10;0.70;;;9.90;76.40;;;;;;955942;146;27419;-81
2022/01/31 11:55:38;;;;;;;0.70;0.70;;;9.90;76.40;;;;;;956306;146;27336;-82
2022/01/31 11:58:03;;;;;;;0.73;0.60;;;9.80;76.40;;;;;;954878;146;27717;-81
2022/01/31 12:00:30;;;;;;;1.03;0.60;;;9.70;77.00;;;;;;957636;146;27299;-81
2022/01/31 12:02:56;;;;;;;1.20;1.03;;;9.70;76.60;;;;;;955484;146;27280;-80
2022/01/31 12:05:25;;;;;;;0.83;0.83;;;9.60;76.70;;;;;;956464;146;27287;-80
2022/01/31 12:08:14;;;;;;;1.00;0.90;;;9.50;76.80;;;;;;956215;146;27279;-81
2022/01/31 12:10:39;;;;;;;1.13;0.70;;;9.50;77.10;;;;;;955899;146;27321;-81
2022/01/31 12:18:34;;;;;;;0.80;0.80;;;9.40;77.70;;;;;;957730;146;27356;-80
2022/01/31 12:23:37;;;;;;;0.90;0.67;;;9.30;77.90;;;;;;952381;145;27377;-80
2022/01/31 12:26:04;;;;;;;0.60;0.60;;;9.30;77.90;;;;;;951142;146;28257;-79
2022/01/31 12:28:40;;;;;;;0.33;0.33;;;9.30;78.10;;;;;;947891;147;27321;-78
2022/01/31 12:31:31;;;;;;;1.10;0.60;;;9.30;78.20;;;;;;951064;146;27358;-78
2022/01/31 12:33:57;;;;;;;1.50;0.70;;;9.30;78.20;;;;;;949105;146;27405;-78
2022/01/31 12:36:36;;;;;;;0.50;0.50;;;9.30;78.20;;;;;;948663;145;27476;-80
2022/01/31 12:39:21;;;;;;;0.90;0.80;;;9.30;78.40;;;;;;951978;146;27356;-81
2022/01/31 12:41:48;;;;;;;1.53;0.90;;;9.30;78.40;;;;;;950917;146;27466;-82
2022/01/31 12:44:32;;;;;;;0.60;0.53;;;9.30;78.40;;;;;;950696;146;27344;-81
2022/01/31 12:47:08;;;;;;;0.50;0.50;;;9.30;78.50;;;;;;946594;146;27418;-82
2022/01/31 12:49:34;;;;;;;0.40;0.40;;;9.30;78.50;;;;;;952441;146;27425;-81
2022/01/31 12:52:03;;;;;;;0.40;0.40;;;9.40;78.40;;;;;;950911;146;27348;-79
2022/01/31 12:54:30;;;;;;;0.77;0.77;;;9.40;78.40;;;;;;950847;146;27385;-81
2022/01/31 12:57:10;;;;;;;0.40;0.40;;;9.40;78.30;;;;;;949717;147;27289;-81
2022/01/31 12:59:35;;;;;;;0.60;0.40;;;9.50;78.20;;;;;;950862;146;27324;-81
2022/01/31 13:02:05;;;;;;;0.47;0.47;;;9.50;78.30;;;;;;953449;146;27340;-80
2022/01/31 13:04:32;;;;;;;0.50;0.50;;;9.50;78.20;;;;;;951803;146;27430;-80
2022/01/31 13:07:01;;;;;;;0.30;0.30;;;9.60;78.20;;;;;;954226;145;27356;-79
2022/01/31 13:09:27;;;;;;;0.50;0.50;;;9.60;78.10;;;;;;950466;147;27309;-79
2022/01/31 13:12:00;;;;;;;0.53;0.37;;;9.60;78.10;;;;;;953088;145;27358;-79
2022/01/31 13:14:29;;;;;;;1.33;0.60;;;9.60;78.00;;;;;;949642;146;27333;-80
2022/01/31 13:17:01;;;;;;;0.83;0.47;;;9.70;77.90;;;;;;952243;146;27339;-81
2022/01/31 13:19:25;;;;;;;0.60;0.60;;;9.70;77.70;;;;;;950575;146;27380;-81
2022/01/31 13:21:51;;;;;;;0.60;0.60;;;9.70;77.60;;;;;;954681;146;27321;-81
2022/01/31 13:24:18;;;;;;;0.70;0.50;;;9.80;77.50;;;;;;957804;146;27811;-80
2022/01/31 13:26:47;;;;;;;1.03;0.77;;;9.80;77.20;;;;;;957337;146;27402;-79
2022/01/31 13:29:32;;;;;;;3.13;0.70;;;9.80;77.00;;;;;;955484;146;27355;-79
2022/01/31 13:31:59;;;;;;;0.40;0.40;;;9.80;76.80;;;;;;957004;146;27317;-80